Time;durP1;ratioP1;P1;durP2;ratioP2;P2;SDS_P1;SDS_P2;PMS_P1;PMS_P2;Temp;Humidity;BMP_temperature;BMP_pressure;BME280_temperature;BME280_humidity;BME280_pressure;Samples;Min_cycle;Max_cycle;Signal;HPM_P1;HPM_P2
2022/04/29 00:00:07;;;;;;;11.83;6.93;;;9.20;99.90;;;;;;5103452;28;20168;-63
2022/04/29 00:02:34;;;;;;;19.13;8.27;;;8.70;99.90;;;;;;5095299;28;20175;-63
2022/04/29 00:05:00;;;;;;;21.67;7.37;;;8.60;99.90;;;;;;5102133;28;20337;-63
2022/04/29 00:07:25;;;;;;;17.67;8.27;;;8.50;99.90;;;;;;5091890;28;20225;-63
2022/04/29 00:09:51;;;;;;;20.13;7.73;;;8.50;99.90;;;;;;5099776;28;20178;-63
2022/04/29 00:12:19;;;;;;;15.43;8.57;;;8.50;99.90;;;;;;5111218;28;20178;-63
2022/04/29 00:14:45;;;;;;;21.90;9.77;;;8.50;99.90;;;;;;5107092;28;20184;-63
2022/04/29 00:17:11;;;;;;;20.20;9.30;;;8.40;99.90;;;;;;5111465;28;20199;-63
2022/04/29 00:19:38;;;;;;;18.13;10.17;;;8.40;99.90;;;;;;5112021;28;20556;-63
2022/04/29 00:22:04;;;;;;;17.17;9.53;;;8.40;99.90;;;;;;5108533;28;20209;-63
2022/04/29 00:24:30;;;;;;;18.67;9.30;;;8.40;99.90;;;;;;5106550;28;20179;-63
2022/04/29 00:26:58;;;;;;;20.87;9.70;;;8.40;99.90;;;;;;5103201;28;20183;-63
2022/04/29 00:29:24;;;;;;;19.73;10.20;;;8.40;99.90;;;;;;5091656;28;20595;-62
2022/04/29 00:31:50;;;;;;;22.37;9.33;;;8.40;99.90;;;;;;5107755;28;20183;-62
2022/04/29 00:34:17;;;;;;;26.90;10.97;;;8.40;99.90;;;;;;5107560;28;20168;-62
2022/04/29 00:36:42;;;;;;;23.43;11.30;;;8.40;99.90;;;;;;5107698;28;20172;-63
2022/04/29 00:39:08;;;;;;;23.20;11.23;;;8.30;99.90;;;;;;5106382;28;20706;-63
2022/04/29 00:41:34;;;;;;;23.40;11.70;;;8.30;99.90;;;;;;5104581;28;20176;-63
2022/04/29 00:44:02;;;;;;;22.70;11.70;;;8.30;99.90;;;;;;5102807;28;20559;-63
2022/04/29 00:46:32;;;;;;;21.40;11.40;;;8.30;99.90;;;;;;5095884;28;20210;-63
2022/04/29 00:48:59;;;;;;;19.13;10.13;;;8.40;99.90;;;;;;5111171;28;20209;-63
2022/04/29 00:51:25;;;;;;;22.23;11.10;;;8.30;99.90;;;;;;5111406;28;20175;-62
2022/04/29 00:53:54;;;;;;;18.40;10.97;;;8.40;99.90;;;;;;5092671;28;20171;-63
2022/04/29 00:56:21;;;;;;;22.13;11.30;;;8.40;99.90;;;;;;5098577;28;20170;-62
2022/04/29 00:58:55;;;;;;;26.03;11.20;;;8.30;99.90;;;;;;5108057;28;20253;-62
2022/04/29 01:01:22;;;;;;;19.80;10.43;;;8.20;99.90;;;;;;5098574;28;20175;-63
2022/04/29 01:03:49;;;;;;;22.07;11.70;;;8.10;99.90;;;;;;5111002;28;20175;-63
2022/04/29 01:06:15;;;;;;;27.47;11.60;;;8.10;99.90;;;;;;5093837;28;20160;-63
2022/04/29 01:08:40;;;;;;;21.90;11.63;;;8.00;99.90;;;;;;5095933;28;20657;-60
2022/04/29 01:11:06;;;;;;;17.90;10.70;;;8.00;99.90;;;;;;5100432;28;20861;-59
2022/04/29 01:13:33;;;;;;;17.83;10.40;;;8.00;99.90;;;;;;5110798;28;20647;-64
2022/04/29 01:15:59;;;;;;;18.27;10.27;;;7.90;99.90;;;;;;5110250;28;20556;-63
2022/04/29 01:18:27;;;;;;;20.80;10.83;;;7.90;99.90;;;;;;5111063;28;20203;-63
2022/04/29 01:21:06;;;;;;;19.83;10.97;;;7.90;99.90;;;;;;5111084;28;20171;-63
2022/04/29 01:23:34;;;;;;;26.27;10.83;;;7.80;99.90;;;;;;5109614;28;20175;-63
2022/04/29 01:26:01;;;;;;;20.53;10.80;;;7.90;99.90;;;;;;5107754;28;20163;-64
2022/04/29 01:28:29;;;;;;;23.77;10.57;;;7.80;99.90;;;;;;5111092;28;20175;-63
2022/04/29 01:30:57;;;;;;;18.47;10.53;;;7.80;99.90;;;;;;5110908;28;20440;-63
2022/04/29 01:33:25;;;;;;;17.90;10.17;;;7.80;99.90;;;;;;5109270;28;20174;-63
2022/04/29 01:35:50;;;;;;;18.23;9.47;;;7.80;99.90;;;;;;5095617;28;20236;-63
2022/04/29 01:38:16;;;;;;;21.20;10.63;;;7.80;99.90;;;;;;5100233;28;20206;-62
2022/04/29 01:40:42;;;;;;;19.43;10.27;;;7.80;99.90;;;;;;5110750;28;20634;-62
2022/04/29 01:43:08;;;;;;;21.13;10.20;;;7.80;99.90;;;;;;5111455;28;20186;-62
2022/04/29 01:45:34;;;;;;;19.83;9.53;;;7.90;99.90;;;;;;5103696;28;20646;-62
2022/04/29 01:47:59;;;;;;;23.17;10.57;;;7.80;99.90;;;;;;5104532;28;20176;-63
2022/04/29 01:50:26;;;;;;;19.20;9.77;;;7.80;99.90;;;;;;5104629;28;20642;-63
2022/04/29 01:52:52;;;;;;;22.97;11.03;;;7.80;99.90;;;;;;5094972;28;20228;-63
2022/04/29 01:55:17;;;;;;;18.03;10.03;;;7.70;99.90;;;;;;5095333;28;20612;-63
2022/04/29 01:57:48;;;;;;;20.17;10.77;;;7.70;99.90;;;;;;5098435;28;20210;-63
2022/04/29 02:00:14;;;;;;;20.93;11.03;;;7.70;99.90;;;;;;5104282;28;20178;-63
2022/04/29 02:02:40;;;;;;;22.27;11.27;;;7.50;99.90;;;;;;5113783;28;20179;-63
2022/04/29 02:05:06;;;;;;;22.17;10.70;;;7.50;99.90;;;;;;5105810;28;20693;-63
2022/04/29 02:07:31;;;;;;;22.13;10.53;;;7.50;99.90;;;;;;5094815;28;20512;-63
2022/04/29 02:09:57;;;;;;;20.97;10.87;;;7.50;99.90;;;;;;5107986;28;20178;-62
2022/04/29 02:12:23;;;;;;;23.17;10.77;;;7.40;99.90;;;;;;5114170;28;20229;-63
2022/04/29 02:14:49;;;;;;;18.70;10.40;;;7.30;99.90;;;;;;5108548;28;20168;-62
2022/04/29 02:17:15;;;;;;;21.63;10.67;;;7.30;99.90;;;;;;5093971;28;20200;-62
2022/04/29 02:19:41;;;;;;;25.87;11.30;;;7.30;99.90;;;;;;5108954;28;20182;-62
2022/04/29 02:22:08;;;;;;;23.80;11.60;;;7.20;99.90;;;;;;5114560;28;20540;-62
2022/04/29 02:24:34;;;;;;;21.57;11.50;;;7.20;99.90;;;;;;5109528;28;20719;-63
2022/04/29 02:27:02;;;;;;;22.57;11.27;;;7.20;99.90;;;;;;5093951;28;20175;-63
2022/04/29 02:29:28;;;;;;;24.80;11.07;;;7.20;99.90;;;;;;5093818;28;20654;-63
2022/04/29 02:31:54;;;;;;;20.57;11.50;;;7.10;99.90;;;;;;5093887;28;20164;-63
2022/04/29 02:34:20;;;;;;;25.20;11.30;;;7.10;99.90;;;;;;5094562;28;20619;-63
2022/04/29 02:36:47;;;;;;;22.03;11.37;;;7.10;99.90;;;;;;5103132;28;20251;-63
2022/04/29 02:39:13;;;;;;;24.60;11.90;;;7.10;99.90;;;;;;5093642;28;20190;-62
2022/04/29 02:41:40;;;;;;;21.47;12.00;;;7.00;99.90;;;;;;5112015;28;20178;-63
2022/04/29 02:44:06;;;;;;;24.30;12.00;;;7.00;99.90;;;;;;5112183;28;20668;-63
2022/04/29 02:46:32;;;;;;;21.27;11.63;;;6.90;99.90;;;;;;5093329;28;20222;-64
2022/04/29 02:48:58;;;;;;;24.13;12.20;;;6.80;99.90;;;;;;5099902;28;20201;-63
2022/04/29 02:51:23;;;;;;;19.10;11.20;;;6.70;99.90;;;;;;5113185;28;20828;-63
2022/04/29 02:53:51;;;;;;;25.90;11.80;;;6.70;99.90;;;;;;5112931;28;20174;-63
2022/04/29 02:56:17;;;;;;;24.50;12.20;;;6.70;99.90;;;;;;5113169;28;20258;-63
2022/04/29 02:58:43;;;;;;;25.50;11.27;;;6.70;99.90;;;;;;5093148;28;20200;-63
2022/04/29 03:01:09;;;;;;;25.03;11.20;;;6.60;99.90;;;;;;5093224;28;20195;-63
2022/04/29 03:03:35;;;;;;;22.97;11.53;;;6.60;99.90;;;;;;5097881;28;20176;-63
2022/04/29 03:06:01;;;;;;;19.30;11.90;;;6.60;99.90;;;;;;5110483;28;20220;-63
2022/04/29 03:08:27;;;;;;;20.17;11.67;;;6.50;99.90;;;;;;5112826;28;20587;-63
2022/04/29 03:10:53;;;;;;;22.87;12.47;;;6.50;99.90;;;;;;5111876;28;20175;-63
2022/04/29 03:13:19;;;;;;;24.53;12.13;;;6.50;99.90;;;;;;5106471;28;20224;-63
2022/04/29 03:15:44;;;;;;;23.30;10.77;;;6.50;99.90;;;;;;5094786;28;20672;-62
2022/04/29 03:18:21;;;;;;;20.70;12.40;;;6.50;99.90;;;;;;5093246;28;20218;-62
2022/04/29 03:20:49;;;;;;;22.57;11.57;;;6.50;99.90;;;;;;5092215;28;20262;-62
2022/04/29 03:23:15;;;;;;;23.87;11.77;;;6.50;99.90;;;;;;5092613;28;20255;-63
2022/04/29 03:25:41;;;;;;;20.10;12.30;;;6.50;99.90;;;;;;5096692;28;20279;-62
2022/04/29 03:28:08;;;;;;;26.80;12.17;;;6.50;99.90;;;;;;5092106;28;20187;-63
2022/04/29 03:30:35;;;;;;;26.97;12.33;;;6.40;99.90;;;;;;5091852;28;20240;-64
2022/04/29 03:33:02;;;;;;;27.97;12.67;;;6.40;99.90;;;;;;5092710;28;20172;-64
2022/04/29 03:35:28;;;;;;;22.43;12.37;;;6.40;99.90;;;;;;5092606;28;20168;-64
2022/04/29 03:37:54;;;;;;;20.97;12.27;;;6.40;99.90;;;;;;5105118;28;20681;-64
2022/04/29 03:40:21;;;;;;;23.77;12.40;;;6.40;99.90;;;;;;5112409;28;20163;-64
2022/04/29 03:42:52;;;;;;;25.77;12.43;;;6.40;99.90;;;;;;5113359;28;20187;-64
2022/04/29 03:45:19;;;;;;;24.50;12.27;;;6.30;99.90;;;;;;5110611;28;20171;-64
2022/04/29 03:47:45;;;;;;;21.03;12.00;;;6.30;99.90;;;;;;5105440;28;20686;-64
2022/04/29 03:50:11;;;;;;;30.53;13.17;;;6.30;99.90;;;;;;5112135;27;20186;-64
2022/04/29 03:52:51;;;;;;;27.10;12.60;;;6.30;99.90;;;;;;5093384;28;20168;-64
2022/04/29 03:55:21;;;;;;;26.03;12.33;;;6.20;99.90;;;;;;5101845;28;20179;-63
2022/04/29 03:57:47;;;;;;;23.13;11.47;;;6.20;99.90;;;;;;5099642;28;20216;-63
2022/04/29 04:00:14;;;;;;;23.67;13.00;;;6.10;99.90;;;;;;5110140;28;20586;-63
2022/04/29 04:02:41;;;;;;;24.27;12.50;;;6.20;99.90;;;;;;5112067;28;20649;-64
2022/04/29 04:05:08;;;;;;;28.87;13.10;;;6.20;99.90;;;;;;5111202;28;20170;-64
2022/04/29 04:07:35;;;;;;;21.57;12.37;;;6.20;99.90;;;;;;5103215;28;20226;-64
2022/04/29 04:10:01;;;;;;;24.40;13.00;;;6.10;99.90;;;;;;5108638;28;20667;-64
2022/04/29 04:12:43;;;;;;;23.67;12.97;;;6.10;99.90;;;;;;5092260;28;20670;-64
2022/04/29 04:15:11;;;;;;;21.60;12.37;;;6.00;99.90;;;;;;5092296;28;20176;-64
2022/04/29 04:17:37;;;;;;;28.07;13.67;;;6.00;99.90;;;;;;5106864;28;20262;-64
2022/04/29 04:20:05;;;;;;;27.57;12.70;;;6.00;99.90;;;;;;5092219;28;20176;-65
2022/04/29 04:22:35;;;;;;;25.97;13.30;;;6.00;99.90;;;;;;5095885;28;20179;-64
2022/04/29 04:25:07;;;;;;;23.37;13.33;;;5.90;99.90;;;;;;5107662;28;20193;-64
2022/04/29 04:27:33;;;;;;;25.57;12.37;;;5.90;99.90;;;;;;5107600;28;20183;-65
2022/04/29 04:29:59;;;;;;;26.37;13.13;;;5.90;99.90;;;;;;5095945;28;20176;-60
2022/04/29 04:32:28;;;;;;;21.77;13.17;;;5.90;99.90;;;;;;5108616;28;20167;-65
2022/04/29 04:34:55;;;;;;;22.97;12.43;;;5.90;99.90;;;;;;5110663;28;20176;-65
2022/04/29 04:37:23;;;;;;;28.57;14.13;;;5.80;99.90;;;;;;5107184;28;20196;-65
2022/04/29 04:39:49;;;;;;;25.83;13.40;;;5.90;99.90;;;;;;5104868;28;20183;-65
2022/04/29 04:42:15;;;;;;;25.83;13.07;;;5.90;99.90;;;;;;5109521;28;20179;-66
2022/04/29 04:44:42;;;;;;;26.70;12.73;;;5.90;99.90;;;;;;5091922;28;20650;-64
2022/04/29 04:47:08;;;;;;;30.20;13.17;;;5.80;99.90;;;;;;5101507;28;20224;-64
2022/04/29 04:49:35;;;;;;;23.90;13.43;;;5.80;99.90;;;;;;5107929;28;20175;-62
2022/04/29 04:52:01;;;;;;;33.63;13.57;;;5.80;99.90;;;;;;5104042;28;20239;-62
2022/04/29 04:54:27;;;;;;;27.90;13.57;;;5.80;99.90;;;;;;5092673;28;20175;-61
2022/04/29 04:56:53;;;;;;;26.13;13.80;;;5.80;99.90;;;;;;5105059;28;20182;-61
2022/04/29 04:59:19;;;;;;;26.87;14.07;;;5.90;99.90;;;;;;5111140;28;20254;-61
2022/04/29 05:01:45;;;;;;;27.90;14.90;;;5.90;99.90;;;;;;5111312;28;20183;-61
2022/04/29 05:04:10;;;;;;;24.27;13.33;;;5.90;99.90;;;;;;5094860;28;20191;-61
2022/04/29 05:06:37;;;;;;;25.37;14.00;;;6.00;99.90;;;;;;5108327;28;20175;-61
2022/04/29 05:09:07;;;;;;;24.80;14.13;;;5.90;99.90;;;;;;5111250;28;20174;-61
2022/04/29 05:11:33;;;;;;;28.87;12.90;;;5.90;99.90;;;;;;5101691;28;20174;-61
2022/04/29 05:13:59;;;;;;;27.87;13.27;;;5.80;99.90;;;;;;5107746;28;20271;-61
2022/04/29 05:16:26;;;;;;;20.40;12.40;;;5.80;99.90;;;;;;5111565;28;20690;-61
2022/04/29 05:18:52;;;;;;;25.00;13.57;;;5.80;99.90;;;;;;5095143;28;20211;-61
2022/04/29 05:21:18;;;;;;;27.63;13.50;;;5.80;99.90;;;;;;5094665;28;20634;-61
2022/04/29 05:23:44;;;;;;;23.77;11.87;;;5.70;99.90;;;;;;5094951;28;20170;-61
2022/04/29 05:26:10;;;;;;;23.67;12.53;;;5.70;99.90;;;;;;5094990;28;20175;-61
2022/04/29 05:28:36;;;;;;;26.60;13.30;;;5.60;99.90;;;;;;5098343;28;20175;-61
2022/04/29 05:31:03;;;;;;;29.40;13.07;;;5.70;99.90;;;;;;5115437;28;20178;-61
2022/04/29 05:33:31;;;;;;;19.77;12.47;;;5.70;99.90;;;;;;5115635;28;20179;-61
2022/04/29 05:35:58;;;;;;;26.23;13.10;;;5.60;99.90;;;;;;5115499;28;20171;-61
2022/04/29 05:42:14;;;;;;;25.13;12.40;;;5.60;99.90;;;;;;5112786;28;20265;-61
2022/04/29 05:43:54;;;;;;;21.73;12.87;;;5.60;99.90;;;;;;5100565;28;20224;-62
2022/04/29 05:46:20;;;;;;;27.03;12.13;;;5.60;99.90;;;;;;5111556;28;20215;-61
2022/04/29 05:48:46;;;;;;;27.07;12.33;;;5.60;99.90;;;;;;5109517;28;20190;-61
2022/04/29 05:51:12;;;;;;;27.63;12.83;;;5.60;99.90;;;;;;5114180;28;20179;-61
2022/04/29 05:53:37;;;;;;;26.07;12.20;;;5.70;99.90;;;;;;5095282;28;20191;-61
2022/04/29 05:56:03;;;;;;;28.23;12.47;;;5.70;99.90;;;;;;5101485;28;20171;-61
2022/04/29 05:58:29;;;;;;;31.50;12.73;;;5.80;99.90;;;;;;5110302;28;20238;-61
2022/04/29 06:00:58;;;;;;;25.30;13.10;;;5.80;99.90;;;;;;5098839;28;20167;-61
2022/04/29 06:03:24;;;;;;;24.77;13.27;;;5.90;99.90;;;;;;5105480;28;20176;-61
2022/04/29 06:05:50;;;;;;;24.93;13.67;;;6.00;99.90;;;;;;5096188;28;20168;-61
2022/04/29 06:08:15;;;;;;;22.63;13.17;;;6.10;99.90;;;;;;5101470;28;20673;-61
2022/04/29 06:10:41;;;;;;;27.20;13.97;;;6.10;99.90;;;;;;5094431;28;20200;-61
2022/04/29 06:13:08;;;;;;;31.03;13.90;;;6.20;99.90;;;;;;5109590;28;20280;-61
2022/04/29 06:15:35;;;;;;;24.77;13.10;;;6.30;99.90;;;;;;5112783;28;20248;-61
2022/04/29 06:18:02;;;;;;;28.47;13.13;;;6.40;99.90;;;;;;5102596;28;20211;-67
2022/04/29 06:20:29;;;;;;;25.70;14.87;;;6.50;99.90;;;;;;5103444;28;20205;-62
2022/04/29 06:22:56;;;;;;;25.53;13.60;;;6.60;99.90;;;;;;5108248;28;20266;-61
2022/04/29 06:25:22;;;;;;;28.90;14.00;;;6.70;99.90;;;;;;5095148;27;20201;-62
2022/04/29 06:27:48;;;;;;;32.27;15.43;;;6.80;99.90;;;;;;5112371;28;20183;-61
2022/04/29 06:30:15;;;;;;;24.70;13.93;;;6.90;99.90;;;;;;5108244;28;20172;-61
2022/04/29 06:32:41;;;;;;;25.63;14.13;;;7.00;99.90;;;;;;5107333;28;20557;-62
2022/04/29 06:35:07;;;;;;;26.57;12.53;;;7.10;99.90;;;;;;5109954;28;20642;-63
2022/04/29 06:37:34;;;;;;;30.27;14.53;;;7.30;99.90;;;;;;5113707;28;20299;-63
2022/04/29 06:39:59;;;;;;;26.10;14.00;;;7.30;99.90;;;;;;5112764;28;20576;-61
2022/04/29 06:42:25;;;;;;;25.63;13.87;;;7.40;99.90;;;;;;5102246;28;20180;-63
2022/04/29 06:44:51;;;;;;;24.67;13.50;;;7.50;99.90;;;;;;5093421;28;20523;-60
2022/04/29 06:47:17;;;;;;;27.70;13.53;;;7.60;99.90;;;;;;5102479;28;20230;-61
2022/04/29 06:49:43;;;;;;;26.33;13.00;;;7.70;99.90;;;;;;5113632;28;20178;-60
2022/04/29 06:52:09;;;;;;;26.63;14.07;;;7.80;99.90;;;;;;5104576;28;20259;-59
2022/04/29 06:54:35;;;;;;;27.80;14.37;;;7.90;99.90;;;;;;5098693;28;20171;-60
2022/04/29 06:57:01;;;;;;;28.97;13.93;;;8.00;99.90;;;;;;5099411;28;20248;-59
2022/04/29 06:59:27;;;;;;;33.50;13.80;;;8.10;99.90;;;;;;5093311;28;20184;-59
2022/04/29 07:01:54;;;;;;;28.60;14.40;;;8.20;99.90;;;;;;5091918;28;20184;-60
2022/04/29 07:04:19;;;;;;;30.63;14.93;;;8.30;99.90;;;;;;5099400;28;20658;-60
2022/04/29 07:06:45;;;;;;;29.63;15.43;;;8.50;99.90;;;;;;5091953;28;20267;-60
2022/04/29 07:09:11;;;;;;;32.20;15.87;;;8.70;99.90;;;;;;5093150;28;20206;-59
2022/04/29 07:11:37;;;;;;;37.67;15.97;;;8.90;99.90;;;;;;5104638;28;20262;-59
2022/04/29 07:14:04;;;;;;;34.77;15.33;;;9.10;99.90;;;;;;5103419;28;20175;-60
2022/04/29 07:16:30;;;;;;;31.53;14.00;;;9.30;99.90;;;;;;5092710;28;20198;-60
2022/04/29 07:18:57;;;;;;;35.73;13.60;;;9.40;99.90;;;;;;5092683;28;20215;-63
2022/04/29 07:21:23;;;;;;;32.90;13.27;;;9.50;99.90;;;;;;5093465;28;20179;-65
2022/04/29 07:23:49;;;;;;;41.20;13.60;;;9.60;99.90;;;;;;5109460;28;20183;-64
2022/04/29 07:26:15;;;;;;;31.33;12.50;;;9.70;99.90;;;;;;5113115;28;20168;-61
2022/04/29 07:28:41;;;;;;;33.17;12.93;;;9.80;99.90;;;;;;5112185;28;20175;-75
2022/04/29 07:31:07;;;;;;;35.70;12.83;;;9.90;99.90;;;;;;5113166;28;20584;-68
2022/04/29 07:33:33;;;;;;;27.83;11.37;;;10.10;99.90;;;;;;5113026;28;20228;-63
2022/04/29 07:41:45;;;;;;;30.97;12.17;;;10.40;99.90;;;;;;5097401;28;20178;-59
2022/04/29 07:44:14;;;;;;;26.60;11.63;;;10.50;99.90;;;;;;5098851;28;20171;-58
2022/04/29 07:46:43;;;;;;;36.23;11.90;;;10.70;99.90;;;;;;5097877;28;20214;-57
2022/04/29 07:49:09;;;;;;;35.77;11.33;;;10.90;99.90;;;;;;5112581;28;20231;-58
2022/04/29 07:51:36;;;;;;;27.10;11.90;;;11.00;99.90;;;;;;5110711;28;20248;-58
2022/04/29 07:54:03;;;;;;;28.80;11.03;;;11.00;99.90;;;;;;5112652;28;20168;-59
2022/04/29 07:56:29;;;;;;;25.43;11.17;;;11.20;99.90;;;;;;5105829;28;20171;-56
2022/04/29 07:58:56;;;;;;;33.57;11.47;;;11.30;99.90;;;;;;5111342;28;20195;-58
2022/04/29 08:01:21;;;;;;;23.70;11.15;;;11.40;99.90;;;;;;5101400;28;20171;-57
2022/04/29 08:03:47;;;;;;;26.77;11.57;;;11.40;99.90;;;;;;5097033;28;20228;-57
2022/04/29 08:06:13;;;;;;;24.87;10.70;;;11.30;99.90;;;;;;5091788;28;20164;-57
2022/04/29 08:08:39;;;;;;;22.50;11.43;;;11.30;99.90;;;;;;5091980;28;20187;-57
2022/04/29 08:11:05;;;;;;;25.63;11.80;;;11.20;99.90;;;;;;5091928;28;20184;-56
2022/04/29 08:13:32;;;;;;;22.63;11.53;;;11.30;99.90;;;;;;5104125;28;20171;-56
2022/04/29 08:16:01;;;;;;;17.60;10.70;;;11.30;99.90;;;;;;5101102;28;20637;-57
2022/04/29 08:18:27;;;;;;;22.97;11.70;;;11.50;99.90;;;;;;5111781;28;20672;-57
2022/04/29 08:20:53;;;;;;;22.53;12.07;;;12.30;99.90;;;;;;5096086;28;20233;-56
2022/04/29 08:23:19;;;;;;;24.15;11.48;;;13.60;99.90;;;;;;5103920;28;20183;-57
2022/04/29 08:25:45;;;;;;;20.52;9.68;;;14.80;99.90;;;;;;5108218;28;20663;-57
2022/04/29 08:28:11;;;;;;;17.10;9.40;;;15.80;99.90;;;;;;5092414;28;20184;-57
2022/04/29 08:30:37;;;;;;;21.77;9.05;;;16.30;99.90;;;;;;5090985;28;20179;-57
2022/04/29 08:33:03;;;;;;;18.15;8.13;;;17.10;99.90;;;;;;5110479;28;20285;-57
2022/04/29 08:35:30;;;;;;;18.02;9.23;;;17.80;99.90;;;;;;5111557;28;20717;-57
2022/04/29 08:37:57;;;;;;;16.60;8.43;;;18.40;99.90;;;;;;5111781;28;20206;-57
2022/04/29 08:40:24;;;;;;;19.45;9.55;;;17.90;99.90;;;;;;5111688;28;20179;-57
2022/04/29 08:42:50;;;;;;;20.15;9.55;;;18.00;99.90;;;;;;5111956;28;20183;-57
2022/04/29 08:45:18;;;;;;;25.58;9.45;;;18.00;99.90;;;;;;5111992;28;20179;-57
2022/04/29 08:47:46;;;;;;;19.50;8.75;;;18.00;99.90;;;;;;5109836;28;20222;-58
2022/04/29 08:50:15;;;;;;;19.38;9.90;;;17.70;99.90;;;;;;5109092;28;20167;-57
2022/04/29 08:52:41;;;;;;;17.02;10.15;;;17.00;99.90;;;;;;5109451;28;20175;-57
2022/04/29 09:00:41;;;;;;;18.92;10.20;;;19.10;99.90;;;;;;5110108;28;20228;-58
2022/04/29 09:03:16;;;;;;;16.90;9.77;;;19.50;99.90;;;;;;5111498;28;20171;-58
2022/04/29 09:05:42;;;;;;;15.73;9.50;;;19.70;99.90;;;;;;5111809;28;20253;-58
2022/04/29 09:08:14;;;;;;;19.40;8.75;;;18.20;99.90;;;;;;5111522;28;20638;-57
2022/04/29 09:10:54;;;;;;;19.77;9.48;;;17.00;99.90;;;;;;5111343;28;20167;-58
2022/04/29 09:13:24;;;;;;;20.80;8.95;;;16.40;99.90;;;;;;5111314;28;20171;-56
2022/04/29 09:15:59;;;;;;;19.75;9.23;;;15.90;99.90;;;;;;5111321;28;20249;-56
2022/04/29 09:18:57;;;;;;;20.60;10.25;;;15.90;99.90;;;;;;5111195;28;20627;-57
2022/04/29 09:21:28;;;;;;;18.48;10.45;;;16.10;99.90;;;;;;5077357;28;20180;-57
2022/04/29 09:24:06;;;;;;;17.50;9.38;;;15.50;99.90;;;;;;5110075;28;20171;-56
2022/04/29 09:26:36;;;;;;;19.50;9.15;;;17.00;99.90;;;;;;5111366;28;20649;-57
2022/04/29 09:29:19;;;;;;;20.88;11.32;;;18.00;99.90;;;;;;5111220;28;20305;-58
2022/04/29 09:32:14;;;;;;;18.67;11.75;;;17.80;99.90;;;;;;5111254;28;20167;-57
2022/04/29 09:34:43;;;;;;;24.35;11.23;;;18.80;99.90;;;;;;5097749;28;20685;-57
2022/04/29 09:37:17;;;;;;;25.08;10.65;;;19.30;99.90;;;;;;5111193;28;20172;-57
2022/04/29 09:40:03;;;;;;;19.85;11.48;;;18.60;99.90;;;;;;5111166;28;20183;-57
2022/04/29 09:42:37;;;;;;;22.15;9.90;;;17.80;99.90;;;;;;5111174;28;20156;-57
2022/04/29 09:45:23;;;;;;;24.27;10.85;;;17.80;99.90;;;;;;5111242;28;20645;-57
2022/04/29 09:47:58;;;;;;;22.52;10.65;;;17.70;99.90;;;;;;5111085;28;20310;-57
2022/04/29 09:50:47;;;;;;;22.83;11.73;;;17.40;99.90;;;;;;5111142;28;20220;-57
2022/04/29 09:53:21;;;;;;;22.23;10.65;;;18.20;99.90;;;;;;5111014;28;20179;-57
2022/04/29 09:56:05;;;;;;;23.30;11.05;;;19.10;99.90;;;;;;5111079;28;20646;-57
2022/04/29 09:58:32;;;;;;;19.17;10.40;;;19.60;99.90;;;;;;5111091;28;20218;-57
2022/04/29 10:00:59;;;;;;;19.25;10.23;;;19.20;99.90;;;;;;5111960;28;20274;-57
2022/04/29 10:03:25;;;;;;;18.35;10.15;;;18.30;99.90;;;;;;5114877;28;20216;-57
2022/04/29 10:05:51;;;;;;;20.23;10.20;;;18.60;99.90;;;;;;5114800;28;20526;-58
2022/04/29 10:08:19;;;;;;;20.38;10.00;;;19.30;99.90;;;;;;5114737;28;20171;-55
2022/04/29 10:10:47;;;;;;;20.77;10.25;;;20.40;99.90;;;;;;5114709;28;20160;-56
2022/04/29 10:13:18;;;;;;;17.85;10.10;;;20.40;99.90;;;;;;5114666;28;20251;-57
2022/04/29 10:15:46;;;;;;;21.65;10.48;;;20.80;99.90;;;;;;5113177;28;20180;-57
2022/04/29 10:21:15;;;;;;;19.20;9.52;;;20.90;99.90;;;;;;5114750;28;20202;-57
2022/04/29 10:23:48;;;;;;;19.55;9.45;;;19.40;99.90;;;;;;5114487;28;20175;-57
2022/04/29 10:26:17;;;;;;;16.40;9.32;;;18.20;99.90;;;;;;5114390;28;20159;-57
2022/04/29 10:28:44;;;;;;;14.90;9.05;;;17.60;99.90;;;;;;5114262;27;20156;-57
2022/04/29 10:31:17;;;;;;;16.35;8.65;;;18.50;99.90;;;;;;5114136;28;20170;-57
2022/04/29 10:33:43;;;;;;;19.27;8.20;;;18.40;99.90;;;;;;5114256;28;20159;-57
2022/04/29 10:36:10;;;;;;;20.10;7.78;;;19.80;99.90;;;;;;5114212;28;20514;-57
2022/04/29 10:38:39;;;;;;;16.23;7.63;;;20.40;99.90;;;;;;5113969;28;20301;-57
2022/04/29 10:41:15;;;;;;;16.95;8.18;;;20.40;99.90;;;;;;5114136;27;20164;-57
2022/04/29 10:43:46;;;;;;;15.38;8.27;;;20.30;99.90;;;;;;5114023;28;20170;-57
2022/04/29 10:46:14;;;;;;;15.35;8.05;;;19.20;99.90;;;;;;5113795;28;20171;-57
2022/04/29 10:48:41;;;;;;;18.95;8.70;;;19.80;99.90;;;;;;5113942;28;20254;-57
2022/04/29 10:51:30;;;;;;;15.57;8.50;;;20.30;99.90;;;;;;5114000;28;20254;-57
2022/04/29 10:53:58;;;;;;;17.15;9.00;;;21.50;99.90;;;;;;5084701;28;20186;-57
2022/04/29 10:56:26;;;;;;;17.25;8.27;;;20.40;99.90;;;;;;5113962;28;20195;-57
2022/04/29 10:58:53;;;;;;;15.77;8.98;;;20.60;99.90;;;;;;5114000;28;20214;-57
2022/04/29 11:01:28;;;;;;;19.63;8.80;;;21.90;99.90;;;;;;5112416;28;20533;-57
2022/04/29 11:03:54;;;;;;;17.58;8.80;;;21.80;99.90;;;;;;5113614;28;20171;-57
2022/04/29 11:06:20;;;;;;;18.70;8.27;;;21.10;99.90;;;;;;5113727;28;20254;-57
2022/04/29 11:08:46;;;;;;;12.63;7.72;;;20.90;99.90;;;;;;5113699;28;20171;-57
2022/04/29 11:11:12;;;;;;;18.60;8.13;;;20.80;99.90;;;;;;5113672;28;20186;-57
2022/04/29 11:13:47;;;;;;;16.88;8.35;;;21.30;99.90;;;;;;5112901;28;20168;-57
2022/04/29 11:16:14;;;;;;;21.33;8.65;;;20.40;99.90;;;;;;5113382;28;20652;-57
2022/04/29 11:18:42;;;;;;;24.10;8.27;;;21.00;99.90;;;;;;5113197;28;20214;-57
2022/04/29 11:26:50;;;;;;;14.90;8.25;;;22.30;99.90;;;;;;5113438;28;20177;-58
2022/04/29 11:29:19;;;;;;;13.05;7.47;;;22.90;99.90;;;;;;5113051;28;20240;-58
2022/04/29 11:31:44;;;;;;;10.25;7.03;;;24.10;99.90;;;;;;5111824;28;20167;-58
2022/04/29 11:34:13;;;;;;;13.60;7.40;;;24.20;99.90;;;;;;5113146;28;20178;-58
2022/04/29 11:36:40;;;;;;;16.98;7.68;;;24.00;99.90;;;;;;5112939;28;20163;-57
2022/04/29 11:39:16;;;;;;;10.60;6.40;;;21.50;99.90;;;;;;5112823;27;20310;-57
2022/04/29 11:41:56;;;;;;;16.73;8.48;;;21.20;99.90;;;;;;5113047;28;20235;-57
2022/04/29 11:44:42;;;;;;;15.70;7.50;;;20.60;99.90;;;;;;5112775;28;20629;-57
2022/04/29 11:47:07;;;;;;;18.83;8.15;;;20.30;99.90;;;;;;5112502;28;20309;-58
2022/04/29 11:49:34;;;;;;;11.60;7.10;;;19.70;99.90;;;;;;5112698;28;20258;-58
2022/04/29 11:52:31;;;;;;;19.38;7.90;;;19.40;99.90;;;;;;5112643;28;20167;-57
2022/04/29 11:55:15;;;;;;;15.13;7.53;;;19.10;99.90;;;;;;5112762;28;20175;-57
2022/04/29 11:57:46;;;;;;;16.83;8.07;;;18.70;99.90;;;;;;5111354;28;20198;-57
2022/04/29 12:00:32;;;;;;;13.30;7.72;;;18.50;99.90;;;;;;5112587;27;20175;-57
2022/04/29 12:02:59;;;;;;;15.93;8.38;;;18.20;99.90;;;;;;5112454;28;20170;-57
2022/04/29 12:05:29;;;;;;;14.48;7.80;;;17.40;99.90;;;;;;5112528;28;20168;-57
2022/04/29 12:08:02;;;;;;;24.85;7.80;;;17.20;99.90;;;;;;5112457;28;20168;-57
2022/04/29 12:10:30;;;;;;;18.92;7.57;;;17.20;99.90;;;;;;5112463;28;20243;-57
2022/04/29 12:13:03;;;;;;;15.55;8.20;;;17.20;99.90;;;;;;5112381;28;20653;-57
2022/04/29 12:15:36;;;;;;;14.85;8.68;;;16.70;99.90;;;;;;5112319;28;20171;-57
2022/04/29 12:18:08;;;;;;;22.00;7.93;;;16.70;99.90;;;;;;5112266;28;20196;-57
2022/04/29 12:20:34;;;;;;;12.52;7.70;;;17.10;99.90;;;;;;5089539;28;20198;-57
2022/04/29 12:23:10;;;;;;;17.48;7.93;;;17.10;99.90;;;;;;5106326;28;20171;-57
2022/04/29 12:25:45;;;;;;;16.60;8.75;;;17.10;99.90;;;;;;5111298;28;20171;-57
2022/04/29 12:28:26;;;;;;;16.63;8.38;;;17.00;99.90;;;;;;5112070;28;20186;-57
2022/04/29 12:37:04;;;;;;;21.27;8.73;;;16.40;99.90;;;;;;5111973;28;20200;-57
2022/04/29 12:39:43;;;;;;;16.48;8.52;;;16.80;99.90;;;;;;5111859;28;20270;-57
2022/04/29 12:42:10;;;;;;;17.95;8.77;;;16.70;99.90;;;;;;5111763;28;20171;-57
2022/04/29 12:45:14;;;;;;;16.88;8.55;;;16.30;99.90;;;;;;5111883;28;20171;-57
2022/04/29 12:48:02;;;;;;;15.80;7.75;;;17.30;99.90;;;;;;5111440;28;20218;-57
2022/04/29 12:50:38;;;;;;;17.80;8.88;;;17.70;99.90;;;;;;5111636;28;20205;-57
2022/04/29 12:53:13;;;;;;;18.83;9.55;;;18.20;99.90;;;;;;5111691;28;20248;-57
2022/04/29 12:55:42;;;;;;;17.58;8.52;;;18.50;99.90;;;;;;5111580;28;20194;-57
2022/04/29 12:58:17;;;;;;;19.95;8.65;;;18.30;99.90;;;;;;5111547;28;20213;-57
2022/04/29 13:00:52;;;;;;;16.90;9.18;;;17.90;99.90;;;;;;5111381;28;20254;-57
2022/04/29 13:03:26;;;;;;;18.55;10.23;;;17.80;99.90;;;;;;5111528;28;20166;-57
2022/04/29 13:05:53;;;;;;;23.02;9.32;;;17.50;99.90;;;;;;5111531;28;20231;-57
2022/04/29 13:08:18;;;;;;;19.30;9.48;;;17.20;99.90;;;;;;5111502;28;20171;-57
2022/04/29 13:10:51;;;;;;;24.70;9.73;;;17.50;99.90;;;;;;5111540;28;20174;-57